Time;durP1;ratioP1;P1;durP2;ratioP2;P2;SDS_P1;SDS_P2;PMS_P1;PMS_P2;Temp;Humidity;BMP_temperature;BMP_pressure;BME280_temperature;BME280_humidity;BME280_pressure;Samples;Min_cycle;Max_cycle;Signal;HPM_P1;HPM_P2
2022/05/15 00:02:23;;;;;;;9.32;5.00;;;14.90;67.10;;;;;;5071657;28;20115;-80
2022/05/15 00:04:50;;;;;;;10.10;4.70;;;14.90;67.20;;;;;;5074677;28;20073;-80
2022/05/15 00:07:17;;;;;;;10.90;5.18;;;14.90;67.20;;;;;;5073345;28;20461;-80
2022/05/15 00:09:44;;;;;;;8.20;5.20;;;14.80;67.20;;;;;;5074481;28;20094;-80
2022/05/15 00:12:11;;;;;;;11.02;5.03;;;14.80;67.30;;;;;;5074614;28;20094;-80
2022/05/15 00:14:38;;;;;;;11.70;5.65;;;14.80;67.30;;;;;;5074506;28;20465;-80
2022/05/15 00:17:05;;;;;;;14.18;6.30;;;14.70;67.30;;;;;;5075011;28;20045;-80
2022/05/15 00:19:32;;;;;;;11.40;5.38;;;14.70;67.40;;;;;;5073838;28;20052;-80
2022/05/15 00:21:59;;;;;;;8.00;5.00;;;14.60;67.40;;;;;;5074194;28;20556;-80
2022/05/15 00:24:28;;;;;;;16.85;5.78;;;14.60;67.40;;;;;;5074217;28;20048;-80
2022/05/15 00:26:56;;;;;;;12.07;5.25;;;14.60;67.50;;;;;;5074407;28;20044;-80
2022/05/15 00:29:23;;;;;;;11.48;5.43;;;14.60;67.50;;;;;;5074399;28;20045;-79
2022/05/15 00:31:50;;;;;;;12.15;5.55;;;14.50;67.50;;;;;;5074391;28;20045;-80
2022/05/15 00:34:17;;;;;;;10.32;4.95;;;14.50;67.50;;;;;;5073709;28;20503;-80
2022/05/15 00:36:44;;;;;;;14.23;5.20;;;14.40;67.60;;;;;;5073702;28;20048;-79
2022/05/15 00:39:11;;;;;;;10.52;5.28;;;14.40;67.60;;;;;;5073917;28;20041;-80
2022/05/15 00:41:39;;;;;;;11.55;5.43;;;14.40;67.60;;;;;;5073974;28;20524;-79
2022/05/15 00:44:08;;;;;;;12.45;5.38;;;14.40;67.70;;;;;;5074562;28;20041;-80
2022/05/15 00:46:38;;;;;;;11.27;5.25;;;14.40;67.70;;;;;;5073790;28;20049;-80
2022/05/15 00:49:09;;;;;;;9.93;5.60;;;14.30;67.80;;;;;;5073347;28;20094;-80
2022/05/15 00:51:38;;;;;;;12.07;5.65;;;14.30;67.80;;;;;;5073807;28;20106;-80
2022/05/15 00:54:11;;;;;;;13.68;5.63;;;14.30;67.80;;;;;;5073776;28;20044;-80
2022/05/15 00:56:42;;;;;;;11.82;5.50;;;14.20;67.80;;;;;;5073663;28;20045;-80
2022/05/15 00:59:15;;;;;;;9.23;5.20;;;14.20;67.90;;;;;;5074084;28;20048;-80
2022/05/15 01:01:42;;;;;;;10.43;4.93;;;14.20;67.90;;;;;;5073450;28;20048;-80
2022/05/15 01:04:11;;;;;;;10.93;5.10;;;14.10;67.90;;;;;;5073221;28;20040;-80
2022/05/15 01:06:43;;;;;;;8.82;5.30;;;14.10;68.00;;;;;;5073483;28;20049;-80
2022/05/15 01:09:11;;;;;;;8.88;4.82;;;14.10;68.00;;;;;;5073405;28;20052;-80
2022/05/15 01:11:41;;;;;;;10.05;4.85;;;14.00;68.00;;;;;;5073415;28;20061;-79
2022/05/15 01:14:11;;;;;;;10.75;5.18;;;14.00;68.00;;;;;;5072842;28;20110;-79
2022/05/15 01:16:39;;;;;;;10.07;4.65;;;14.00;68.10;;;;;;5073252;28;20048;-79
2022/05/15 01:19:07;;;;;;;10.63;5.22;;;13.90;68.10;;;;;;5072481;28;20403;-81
2022/05/15 01:21:38;;;;;;;11.93;5.05;;;13.90;68.10;;;;;;5073173;28;20121;-79
2022/05/15 01:24:07;;;;;;;9.40;5.28;;;13.90;68.10;;;;;;5073183;28;20044;-80
2022/05/15 01:26:35;;;;;;;13.32;5.85;;;13.90;68.20;;;;;;5073168;28;20048;-79
2022/05/15 01:29:05;;;;;;;8.75;5.03;;;13.90;68.20;;;;;;5073571;28;20048;-81
2022/05/15 01:31:33;;;;;;;13.88;5.90;;;13.80;68.20;;;;;;5072727;28;20783;-81
2022/05/15 01:34:00;;;;;;;10.73;5.82;;;13.80;68.20;;;;;;5072924;28;20049;-81
2022/05/15 01:36:27;;;;;;;10.30;5.45;;;13.80;68.20;;;;;;5072600;28;20532;-81
2022/05/15 01:38:54;;;;;;;11.70;6.22;;;13.70;68.20;;;;;;5072985;28;20086;-80
2022/05/15 01:41:21;;;;;;;11.52;5.90;;;13.70;68.30;;;;;;5073050;28;20053;-80
2022/05/15 01:43:52;;;;;;;12.68;6.15;;;13.70;68.30;;;;;;5072567;28;20461;-80
2022/05/15 01:46:22;;;;;;;14.32;6.38;;;13.60;68.40;;;;;;5072392;28;20110;-80
2022/05/15 01:48:51;;;;;;;11.90;5.97;;;13.60;68.50;;;;;;5071975;28;20102;-80
2022/05/15 01:51:19;;;;;;;11.30;6.30;;;13.60;68.50;;;;;;5072644;28;20098;-80
2022/05/15 01:53:46;;;;;;;11.30;6.25;;;13.60;68.60;;;;;;5072736;28;20052;-80
2022/05/15 01:56:13;;;;;;;10.75;6.00;;;13.50;68.60;;;;;;5073089;28;20502;-80
2022/05/15 01:58:40;;;;;;;12.55;5.68;;;13.50;68.70;;;;;;5072413;28;20048;-80
2022/05/15 02:01:07;;;;;;;10.57;6.43;;;13.50;68.80;;;;;;5071863;28;20044;-79
2022/05/15 02:03:34;;;;;;;11.88;6.72;;;13.50;68.80;;;;;;5072445;28;20052;-79
2022/05/15 02:06:03;;;;;;;11.30;5.97;;;13.40;68.90;;;;;;5072400;28;20090;-80
2022/05/15 02:08:31;;;;;;;13.57;6.75;;;13.50;68.90;;;;;;5072407;28;20048;-80
2022/05/15 02:10:59;;;;;;;9.38;5.55;;;13.40;69.00;;;;;;5072675;28;20048;-79
2022/05/15 02:13:27;;;;;;;16.10;7.18;;;13.40;69.00;;;;;;5072108;28;20052;-80
2022/05/15 02:15:54;;;;;;;11.13;6.28;;;13.40;69.10;;;;;;5071607;28;20407;-80
2022/05/15 02:18:21;;;;;;;13.50;6.07;;;13.40;69.10;;;;;;5072105;28;20048;-80
2022/05/15 02:20:49;;;;;;;11.15;5.80;;;13.40;69.10;;;;;;5056229;28;20094;-79
2022/05/15 02:23:16;;;;;;;7.88;5.45;;;13.40;69.10;;;;;;5068347;28;20049;-80
2022/05/15 02:25:42;;;;;;;12.73;6.93;;;13.40;69.20;;;;;;5071892;28;20041;-80
2022/05/15 02:28:09;;;;;;;11.88;5.80;;;13.40;69.20;;;;;;5071804;28;20101;-80
2022/05/15 02:30:36;;;;;;;11.27;5.88;;;13.30;69.20;;;;;;5071532;28;20044;-80
2022/05/15 02:33:03;;;;;;;10.25;6.30;;;13.30;69.20;;;;;;5071908;28;20087;-80
2022/05/15 02:35:30;;;;;;;10.93;6.15;;;13.20;69.30;;;;;;5070800;28;20048;-80
2022/05/15 02:37:57;;;;;;;10.82;6.00;;;13.30;69.30;;;;;;5072221;28;20048;-80
2022/05/15 02:40:25;;;;;;;10.40;5.72;;;13.20;69.30;;;;;;5071659;28;20101;-79
2022/05/15 02:42:55;;;;;;;11.50;5.75;;;13.20;69.30;;;;;;5071597;28;20044;-79
2022/05/15 02:45:23;;;;;;;9.43;5.80;;;13.20;69.30;;;;;;5071359;28;20079;-80
2022/05/15 02:47:50;;;;;;;13.43;5.60;;;13.10;69.30;;;;;;5071732;28;20044;-79
2022/05/15 02:53:03;;;;;;;10.95;5.57;;;13.00;69.20;;;;;;5070555;28;20049;-80
2022/05/15 02:55:30;;;;;;;10.48;5.80;;;13.00;69.30;;;;;;5071495;28;20053;-79
2022/05/15 02:57:57;;;;;;;11.05;5.50;;;13.00;69.30;;;;;;5071599;28;20101;-79
2022/05/15 03:00:26;;;;;;;13.90;5.65;;;13.00;69.30;;;;;;5071134;28;20048;-79
2022/05/15 03:02:54;;;;;;;13.43;5.93;;;13.00;69.30;;;;;;5071610;28;20101;-79
2022/05/15 03:05:27;;;;;;;10.30;5.35;;;12.90;69.30;;;;;;5070638;28;20079;-80
2022/05/15 03:07:54;;;;;;;11.60;5.53;;;12.90;69.30;;;;;;5071953;28;20053;-80
2022/05/15 03:10:22;;;;;;;9.20;4.78;;;12.90;69.30;;;;;;5071446;28;20388;-80
2022/05/15 03:12:50;;;;;;;9.00;5.35;;;12.90;69.30;;;;;;5071174;28;20041;-80
2022/05/15 03:15:19;;;;;;;9.75;5.57;;;12.80;69.30;;;;;;5071567;28;20090;-79
2022/05/15 03:17:46;;;;;;;10.82;5.72;;;12.80;69.30;;;;;;5071382;28;20118;-80
2022/05/15 03:20:16;;;;;;;10.05;5.38;;;12.80;69.30;;;;;;5071853;28;20052;-79
2022/05/15 03:22:43;;;;;;;11.50;5.88;;;12.80;69.30;;;;;;5071276;28;20061;-81
2022/05/15 03:25:11;;;;;;;10.13;5.32;;;12.70;69.30;;;;;;5071218;28;20090;-80
2022/05/15 03:27:38;;;;;;;9.48;5.45;;;12.70;69.30;;;;;;5069770;28;20049;-80
2022/05/15 03:30:06;;;;;;;7.75;5.18;;;12.70;69.30;;;;;;5071400;28;20094;-80
2022/05/15 03:32:33;;;;;;;9.85;5.05;;;12.70;69.30;;;;;;5071296;28;20056;-80
2022/05/15 03:35:00;;;;;;;10.48;5.22;;;12.70;69.30;;;;;;5069903;28;20102;-80
2022/05/15 03:37:27;;;;;;;7.30;4.80;;;12.70;69.40;;;;;;5071210;28;20052;-80
2022/05/15 03:39:55;;;;;;;10.45;5.28;;;12.60;69.40;;;;;;5069946;28;20044;-79
2022/05/15 03:42:24;;;;;;;9.85;5.28;;;12.50;69.40;;;;;;5070878;28;20059;-80
2022/05/15 03:44:52;;;;;;;12.50;5.72;;;12.50;69.40;;;;;;5055688;28;20074;-80
2022/05/15 03:47:19;;;;;;;8.95;5.43;;;12.50;69.40;;;;;;5071603;28;20048;-80
2022/05/15 03:49:47;;;;;;;9.00;5.70;;;12.50;69.40;;;;;;5071233;28;20506;-81
2022/05/15 03:52:16;;;;;;;10.70;5.43;;;12.50;69.40;;;;;;5071136;28;20098;-81
2022/05/15 03:54:43;;;;;;;10.20;5.18;;;12.40;69.40;;;;;;5071055;28;20438;-80
2022/05/15 03:57:10;;;;;;;9.25;5.13;;;12.40;69.40;;;;;;5070696;28;20109;-81
2022/05/15 03:59:40;;;;;;;10.55;5.80;;;12.40;69.50;;;;;;5071084;28;20044;-81
2022/05/15 04:02:09;;;;;;;11.10;5.88;;;12.40;69.50;;;;;;5071530;28;20098;-80
2022/05/15 04:04:36;;;;;;;10.40;5.35;;;12.40;69.50;;;;;;5070954;28;20048;-80
2022/05/15 04:07:10;;;;;;;10.25;5.28;;;12.40;69.50;;;;;;5070754;28;20509;-81
2022/05/15 04:09:40;;;;;;;13.30;5.85;;;12.40;69.60;;;;;;5071033;28;20048;-80
2022/05/15 04:12:12;;;;;;;12.02;6.00;;;12.40;69.60;;;;;;5072427;28;20052;-80
2022/05/15 04:14:39;;;;;;;8.68;5.22;;;12.40;69.60;;;;;;5074625;28;20056;-80
2022/05/15 04:17:06;;;;;;;11.82;5.90;;;12.40;69.60;;;;;;5074910;28;20102;-80
2022/05/15 04:19:35;;;;;;;8.70;5.57;;;12.30;69.60;;;;;;5074116;28;20471;-80
2022/05/15 04:22:04;;;;;;;10.45;5.65;;;12.30;69.70;;;;;;5074349;28;20048;-81
2022/05/15 04:24:33;;;;;;;10.10;6.00;;;12.30;69.70;;;;;;5074249;28;20044;-80
2022/05/15 04:27:01;;;;;;;14.75;6.22;;;12.30;69.70;;;;;;5073961;28;20090;-80
2022/05/15 04:29:28;;;;;;;11.00;5.53;;;12.30;69.80;;;;;;5074397;28;20049;-80
2022/05/15 04:31:58;;;;;;;14.25;5.85;;;12.30;69.80;;;;;;5074568;28;20396;-80
2022/05/15 04:34:27;;;;;;;8.25;5.00;;;12.20;69.90;;;;;;5074058;28;20071;-80
2022/05/15 04:36:55;;;;;;;9.77;6.03;;;12.20;69.90;;;;;;5073952;28;20514;-80
2022/05/15 04:39:22;;;;;;;11.65;5.53;;;12.30;69.90;;;;;;5074065;28;20090;-80
2022/05/15 04:41:49;;;;;;;11.50;5.57;;;12.20;70.00;;;;;;5057876;28;20044;-80
2022/05/15 04:44:16;;;;;;;8.82;5.47;;;12.20;70.00;;;;;;5070501;28;20048;-80
2022/05/15 04:46:43;;;;;;;9.85;5.32;;;12.20;70.10;;;;;;5073773;28;20569;-80
2022/05/15 04:49:10;;;;;;;12.25;5.88;;;12.20;70.10;;;;;;5073766;28;20052;-80
2022/05/15 04:51:36;;;;;;;7.53;5.13;;;12.20;70.10;;;;;;5073644;28;20473;-80
2022/05/15 04:54:04;;;;;;;9.10;5.38;;;12.20;70.10;;;;;;5073838;28;20103;-80
2022/05/15 04:56:30;;;;;;;9.50;5.75;;;12.20;70.10;;;;;;5073614;28;20052;-80
2022/05/15 04:58:57;;;;;;;10.38;5.47;;;12.20;70.20;;;;;;5073036;28;20056;-80
2022/05/15 05:01:25;;;;;;;11.23;6.03;;;12.20;70.30;;;;;;5073454;28;20076;-80
2022/05/15 05:03:54;;;;;;;11.10;5.65;;;12.20;70.30;;;;;;5073431;28;20051;-80
2022/05/15 05:06:21;;;;;;;10.93;5.32;;;12.20;70.30;;;;;;5073553;28;20047;-80
2022/05/15 05:08:49;;;;;;;9.02;5.38;;;12.30;70.40;;;;;;5057412;28;20040;-80
2022/05/15 05:11:17;;;;;;;11.00;6.07;;;12.20;70.40;;;;;;5069906;28;20048;-80
2022/05/15 05:13:44;;;;;;;13.00;6.30;;;12.30;70.40;;;;;;5073337;28;20049;-79
2022/05/15 05:16:11;;;;;;;9.02;5.63;;;12.30;70.50;;;;;;5073334;28;20048;-79
2022/05/15 05:18:38;;;;;;;11.60;7.15;;;12.40;70.60;;;;;;5072995;28;20395;-79
2022/05/15 05:21:05;;;;;;;9.63;5.85;;;12.40;70.70;;;;;;5073355;28;20098;-80
2022/05/15 05:23:32;;;;;;;16.38;6.10;;;12.30;70.80;;;;;;5071878;28;20093;-80
2022/05/15 05:26:00;;;;;;;9.30;5.80;;;12.40;70.90;;;;;;5071570;28;20049;-79
2022/05/15 05:28:27;;;;;;;11.65;6.18;;;12.40;71.00;;;;;;5073036;28;20057;-79
2022/05/15 05:30:54;;;;;;;11.25;5.72;;;12.40;71.00;;;;;;5072726;28;20037;-80
2022/05/15 05:33:22;;;;;;;12.13;6.15;;;12.40;71.00;;;;;;5073130;28;20056;-80
2022/05/15 05:35:50;;;;;;;11.13;6.03;;;12.40;71.00;;;;;;5057095;28;20040;-81
2022/05/15 05:38:17;;;;;;;10.80;6.50;;;12.50;71.10;;;;;;5069047;28;20098;-80
2022/05/15 05:40:44;;;;;;;15.07;6.70;;;12.50;71.10;;;;;;5072842;28;20102;-80
2022/05/15 05:43:11;;;;;;;13.65;6.00;;;12.50;71.20;;;;;;5072627;28;20044;-80
2022/05/15 05:45:38;;;;;;;10.75;5.75;;;12.60;71.30;;;;;;5071476;28;20044;-80
2022/05/15 05:48:05;;;;;;;11.15;5.65;;;12.60;71.30;;;;;;5072638;28;20571;-80
2022/05/15 05:50:33;;;;;;;10.88;5.30;;;12.60;71.40;;;;;;5072828;28;20106;-80
2022/05/15 05:53:00;;;;;;;9.23;5.60;;;12.70;71.30;;;;;;5069517;28;20078;-80
2022/05/15 05:55:27;;;;;;;11.27;5.88;;;12.70;71.30;;;;;;5072584;28;20048;-80
2022/05/15 05:57:53;;;;;;;10.00;5.25;;;12.80;71.30;;;;;;5072420;28;20098;-80
2022/05/15 06:00:27;;;;;;;11.32;6.05;;;12.80;71.20;;;;;;5072448;28;20052;-80
2022/05/15 06:04:39;;;;;;;10.27;5.57;;;12.90;71.20;;;;;;5057254;28;20048;-80
2022/05/15 06:05:41;;;;;;;11.02;6.65;;;12.90;71.20;;;;;;5072485;28;20059;-80
2022/05/15 06:08:08;;;;;;;11.32;6.50;;;12.90;71.20;;;;;;5072599;28;20049;-80
2022/05/15 06:10:35;;;;;;;11.18;6.43;;;13.00;71.20;;;;;;5072085;28;20044;-79
2022/05/15 06:13:03;;;;;;;9.77;6.00;;;13.10;71.20;;;;;;5072261;28;20048;-79
2022/05/15 06:15:30;;;;;;;12.65;6.30;;;13.20;71.30;;;;;;5072162;28;20048;-79
2022/05/15 06:17:59;;;;;;;9.60;5.97;;;13.20;71.20;;;;;;5072049;28;20510;-80
2022/05/15 06:20:26;;;;;;;11.85;5.88;;;13.30;71.20;;;;;;5072172;28;20045;-80
2022/05/15 06:22:53;;;;;;;10.73;6.68;;;13.40;71.20;;;;;;5071233;28;20457;-79
2022/05/15 06:25:20;;;;;;;13.85;5.95;;;13.40;71.20;;;;;;5071878;28;20117;-79
2022/05/15 06:27:48;;;;;;;10.05;5.63;;;13.50;71.10;;;;;;5071934;28;20045;-79
2022/05/15 06:30:16;;;;;;;10.48;5.65;;;13.60;71.20;;;;;;5072077;28;20040;-80
2022/05/15 06:32:43;;;;;;;9.75;5.80;;;13.60;71.20;;;;;;5072065;28;20045;-79
2022/05/15 06:35:13;;;;;;;12.07;6.60;;;13.70;71.10;;;;;;5072173;28;20473;-79
2022/05/15 06:37:40;;;;;;;11.13;6.93;;;13.90;71.20;;;;;;5071525;28;20049;-80
2022/05/15 06:40:09;;;;;;;15.43;6.05;;;13.90;71.20;;;;;;5071856;28;20384;-80
2022/05/15 06:42:37;;;;;;;13.68;6.72;;;14.00;71.20;;;;;;5071654;28;20048;-79
2022/05/15 06:45:05;;;;;;;16.42;7.22;;;14.10;71.20;;;;;;5071801;28;20047;-80
2022/05/15 06:47:34;;;;;;;16.15;7.38;;;14.20;71.20;;;;;;5071839;28;20084;-79
2022/05/15 06:50:02;;;;;;;15.52;6.55;;;14.20;71.20;;;;;;5070317;28;20056;-79
2022/05/15 06:52:29;;;;;;;11.40;6.25;;;14.40;71.10;;;;;;5071365;28;20055;-80
2022/05/15 06:54:56;;;;;;;10.50;5.90;;;14.40;71.00;;;;;;5071638;28;20048;-79
2022/05/15 06:57:29;;;;;;;13.40;5.85;;;14.50;71.00;;;;;;5071516;28;20044;-79
2022/05/15 07:00:02;;;;;;;10.73;6.22;;;14.50;70.90;;;;;;5067478;28;20506;-79
2022/05/15 07:02:29;;;;;;;12.85;6.25;;;14.60;70.80;;;;;;5072597;28;20090;-79
2022/05/15 07:04:57;;;;;;;13.57;7.05;;;14.70;70.80;;;;;;5075523;28;20055;-80
2022/05/15 07:07:24;;;;;;;11.35;6.30;;;14.80;70.70;;;;;;5071936;28;20045;-80
2022/05/15 07:09:51;;;;;;;12.75;6.18;;;14.80;70.80;;;;;;5072183;28;20509;-80
2022/05/15 07:12:18;;;;;;;14.10;6.43;;;14.90;70.70;;;;;;5071758;28;20093;-80
2022/05/15 07:14:46;;;;;;;11.85;6.00;;;14.90;70.60;;;;;;5068614;28;20099;-80
2022/05/15 07:17:12;;;;;;;13.32;6.40;;;15.00;70.60;;;;;;5075870;28;20052;-80
2022/05/15 07:19:40;;;;;;;12.77;6.20;;;15.10;70.50;;;;;;5071708;28;20084;-80
2022/05/15 07:22:09;;;;;;;12.32;6.85;;;15.20;70.40;;;;;;5071968;28;20055;-80
2022/05/15 07:24:38;;;;;;;12.80;5.88;;;15.20;70.30;;;;;;5071984;28;20126;-80
2022/05/15 07:27:06;;;;;;;10.52;6.20;;;15.30;70.30;;;;;;5069443;28;20090;-80
2022/05/15 07:29:36;;;;;;;11.93;6.00;;;15.40;70.20;;;;;;5070366;28;20103;-80
2022/05/15 07:32:05;;;;;;;11.32;6.13;;;15.40;70.10;;;;;;5074517;28;20044;-79
2022/05/15 07:34:32;;;;;;;10.40;6.20;;;15.50;70.10;;;;;;5073084;28;20101;-79
2022/05/15 07:36:59;;;;;;;11.00;5.88;;;15.60;70.00;;;;;;5073384;28;20090;-79
2022/05/15 07:39:26;;;;;;;10.57;5.80;;;15.70;69.90;;;;;;5072033;28;20052;-79
2022/05/15 07:41:53;;;;;;;10.98;5.68;;;15.80;69.80;;;;;;5067865;28;20041;-80
2022/05/15 07:44:20;;;;;;;11.38;5.72;;;15.80;69.70;;;;;;5075070;28;20052;-79
2022/05/15 07:46:47;;;;;;;12.63;5.90;;;15.90;69.50;;;;;;5075934;28;20044;-79
2022/05/15 07:49:15;;;;;;;11.70;5.00;;;15.90;69.40;;;;;;5075016;28;20058;-79
2022/05/15 07:51:44;;;;;;;10.20;5.57;;;16.00;69.30;;;;;;5076814;28;20048;-79
2022/05/15 07:54:14;;;;;;;13.60;5.55;;;16.00;69.30;;;;;;5073938;28;20055;-79
2022/05/15 07:56:44;;;;;;;11.35;5.18;;;16.10;69.10;;;;;;5072692;28;20049;-79
2022/05/15 07:59:12;;;;;;;11.18;4.95;;;16.20;69.10;;;;;;5078668;28;20510;-80
2022/05/15 08:01:40;;;;;;;9.95;5.38;;;16.30;69.00;;;;;;5075088;28;20048;-80
2022/05/15 08:04:08;;;;;;;11.27;5.10;;;16.30;68.90;;;;;;5074846;28;20098;-79
2022/05/15 08:09:20;;;;;;;9.98;4.80;;;16.40;68.70;;;;;;5074569;28;20097;-80
2022/05/15 08:11:47;;;;;;;10.32;4.53;;;16.50;68.60;;;;;;5071076;28;20056;-80
2022/05/15 08:14:16;;;;;;;8.70;4.28;;;16.60;68.60;;;;;;5078760;28;20048;-79
2022/05/15 08:16:43;;;;;;;11.27;4.70;;;16.60;68.50;;;;;;5074549;28;20106;-80
2022/05/15 08:24:42;;;;;;;11.18;4.10;;;16.90;68.20;;;;;;5074621;28;20475;-80
2022/05/15 08:27:09;;;;;;;10.93;4.32;;;16.90;68.10;;;;;;5072652;28;20094;-80
2022/05/15 08:29:37;;;;;;;6.68;3.67;;;17.00;68.00;;;;;;5073988;28;20067;-80
2022/05/15 08:32:05;;;;;;;9.05;4.28;;;17.10;67.90;;;;;;5076836;28;20048;-80
2022/05/15 08:34:33;;;;;;;6.68;3.42;;;17.30;67.80;;;;;;5076003;28;20579;-80
2022/05/15 08:37:03;;;;;;;9.70;4.40;;;17.30;67.70;;;;;;5074356;28;20476;-80
2022/05/15 08:39:30;;;;;;;8.05;3.58;;;17.40;67.60;;;;;;5074273;28;20052;-80
2022/05/15 08:42:06;;;;;;;8.88;3.50;;;17.50;67.50;;;;;;5070835;28;20461;-80
2022/05/15 08:44:36;;;;;;;6.35;3.55;;;17.60;67.40;;;;;;5073946;28;20052;-80
2022/05/15 08:47:16;;;;;;;6.55;3.35;;;17.80;67.30;;;;;;5076455;28;20090;-80
2022/05/15 08:50:00;;;;;;;9.25;3.67;;;17.90;67.10;;;;;;5074191;28;20052;-79
2022/05/15 08:52:36;;;;;;;;;;;18.00;67.00;;;;;;5074650;28;20102;-80
2022/05/15 08:55:06;;;;;;;7.68;3.50;;;18.10;66.80;;;;;;5074049;28;19924;-79
2022/05/15 08:57:59;;;;;;;6.75;3.15;;;18.40;66.70;;;;;;5073900;28;20047;-79
2022/05/15 09:00:36;;;;;;;7.72;3.53;;;18.40;66.40;;;;;;5073624;28;20470;-80
2022/05/15 09:03:27;;;;;;;13.57;3.17;;;18.60;66.30;;;;;;5070673;28;20045;-80
2022/05/15 09:06:13;;;;;;;6.55;3.28;;;18.80;66.00;;;;;;5054649;28;20464;-79
2022/05/15 09:08:43;;;;;;;6.70;2.58;;;18.90;65.80;;;;;;5071897;28;20580;-79
2022/05/15 09:11:12;;;;;;;6.05;2.97;;;19.00;65.50;;;;;;5077303;28;20048;-80
2022/05/15 09:13:49;;;;;;;6.18;2.90;;;19.20;65.20;;;;;;5075460;28;20048;-79
2022/05/15 09:16:23;;;;;;;7.15;2.90;;;19.30;64.90;;;;;;5073170;28;20048;-79
2022/05/15 09:18:50;;;;;;;4.80;2.42;;;19.50;64.50;;;;;;5073649;28;20418;-80
2022/05/15 09:21:18;;;;;;;6.78;2.78;;;19.60;64.10;;;;;;5072652;28;20460;-79
2022/05/15 09:23:51;;;;;;;6.93;2.70;;;19.80;63.70;;;;;;5070005;28;20759;-80
2022/05/15 09:26:28;;;;;;;7.38;2.55;;;19.90;63.30;;;;;;5085346;28;20494;-80
2022/05/15 09:29:00;;;;;;;7.47;2.40;;;20.10;62.80;;;;;;5076923;28;20067;-80
2022/05/15 09:31:29;;;;;;;5.15;2.22;;;20.30;62.40;;;;;;5072986;28;20102;-80
2022/05/15 09:34:01;;;;;;;6.10;2.30;;;20.40;61.90;;;;;;5073113;28;20048;-80
2022/05/15 09:36:33;;;;;;;5.85;2.25;;;20.60;61.50;;;;;;5073204;28;20105;-80
2022/05/15 09:39:22;;;;;;;6.28;2.20;;;20.80;61.10;;;;;;5070080;28;20099;-80
2022/05/15 09:45:14;;;;;;;6.32;2.10;;;21.10;60.00;;;;;;5055594;28;20052;-81
2022/05/15 09:48:00;;;;;;;5.40;2.20;;;21.30;59.40;;;;;;5071204;28;20064;-80
2022/05/15 09:50:48;;;;;;;5.10;2.05;;;21.40;58.80;;;;;;5084392;28;20464;-79
2022/05/15 09:53:40;;;;;;;5.95;1.90;;;21.60;58.30;;;;;;5076833;28;20107;-79
2022/05/15 09:56:19;;;;;;;5.13;2.17;;;21.70;57.90;;;;;;5075762;28;20465;-79
2022/05/15 09:58:51;;;;;;;6.03;2.20;;;21.90;57.50;;;;;;5071670;28;20046;-79
2022/05/15 10:01:41;;;;;;;7.30;2.10;;;22.00;56.90;;;;;;5073594;28;20445;-79
2022/05/15 10:04:26;;;;;;;5.57;2.28;;;22.10;56.50;;;;;;5073306;28;20048;-79
2022/05/15 10:07:00;;;;;;;6.93;2.10;;;22.30;56.10;;;;;;5073518;28;20046;-79
2022/05/15 10:09:31;;;;;;;;;;;22.30;55.70;;;;;;5073758;28;20044;-79
2022/05/15 10:12:10;;;;;;;6.10;2.00;;;22.40;55.40;;;;;;5070122;28;19921;-80
2022/05/15 10:14:44;;;;;;;9.98;2.13;;;22.50;54.90;;;;;;5071228;28;20098;-80
2022/05/15 10:17:12;;;;;;;;;;;22.60;54.50;;;;;;5076327;28;20052;-79
2022/05/15 10:19:46;;;;;;;6.03;2.10;;;22.70;54.10;;;;;;5073281;28;20450;-79
2022/05/15 10:22:27;;;;;;;5.78;1.88;;;22.80;53.80;;;;;;5073283;28;20052;-79
2022/05/15 10:25:17;;;;;;;6.43;2.10;;;22.90;53.50;;;;;;5073325;28;20076;-79
2022/05/15 10:28:18;;;;;;;4.20;1.52;;;22.90;53.20;;;;;;5073255;28;20105;-80
2022/05/15 10:31:21;;;;;;;8.35;2.20;;;23.00;52.90;;;;;;5064823;28;20106;-80
2022/05/15 10:33:55;;;;;;;5.78;2.03;;;23.10;52.60;;;;;;5071945;28;20418;-79
2022/05/15 10:36:49;;;;;;;5.75;1.90;;;23.20;52.40;;;;;;5069678;28;20105;-80
2022/05/15 10:39:45;;;;;;;4.95;1.80;;;23.30;52.10;;;;;;5060575;28;20105;-79
2022/05/15 10:42:27;;;;;;;5.35;1.80;;;23.40;51.80;;;;;;5057807;28;20517;-79
2022/05/15 10:45:30;;;;;;;5.55;1.98;;;23.40;51.50;;;;;;5054032;28;20080;-79
2022/05/15 10:48:26;;;;;;;4.50;1.55;;;23.50;51.30;;;;;;5054876;28;20074;-79
2022/05/15 10:51:07;;;;;;;6.18;1.73;;;23.60;50.90;;;;;;5053567;28;20049;-79
2022/05/15 10:57:24;;;;;;;5.45;1.58;;;23.70;50.30;;;;;;5022252;28;20567;-80
2022/05/15 11:00:07;;;;;;;6.13;1.70;;;23.80;49.90;;;;;;4990595;28;20508;-80
2022/05/15 11:02:55;;;;;;;5.07;1.60;;;23.90;49.60;;;;;;5022281;28;20053;-79
2022/05/15 11:05:29;;;;;;;5.60;1.80;;;23.90;49.30;;;;;;5021350;28;20053;-79
2022/05/15 11:08:01;;;;;;;5.63;1.52;;;24.00;49.10;;;;;;5013134;28;20050;-79
2022/05/15 11:11:04;;;;;;;6.95;1.98;;;24.00;48.90;;;;;;5009824;28;20070;-79
2022/05/15 11:13:49;;;;;;;5.72;2.00;;;24.10;48.60;;;;;;5009338;28;20498;-79
2022/05/15 11:16:37;;;;;;;8.02;1.80;;;24.20;48.30;;;;;;5009895;28;20049;-79
2022/05/15 11:19:31;;;;;;;5.38;1.90;;;24.30;48.10;;;;;;5011502;28;20046;-79
2022/05/15 11:22:10;;;;;;;8.13;1.83;;;24.30;47.80;;;;;;5011336;28;20046;-79
2022/05/15 11:25:04;;;;;;;5.30;1.70;;;24.40;47.60;;;;;;5015268;28;20478;-79
2022/05/15 11:27:49;;;;;;;6.43;2.30;;;24.40;47.30;;;;;;5013384;28;20053;-80
2022/05/15 11:30:28;;;;;;;6.60;1.60;;;24.50;47.10;;;;;;5012579;28;20053;-79
2022/05/15 11:32:57;;;;;;;6.53;1.67;;;24.60;46.90;;;;;;5013957;28;20072;-79
2022/05/15 11:35:28;;;;;;;8.73;1.58;;;24.70;46.70;;;;;;5077477;28;20552;-79
2022/05/15 11:38:08;;;;;;;6.40;1.60;;;24.70;46.60;;;;;;5078744;28;20102;-80
2022/05/15 11:40:40;;;;;;;4.20;1.48;;;24.80;46.40;;;;;;5075941;28;20079;-79
2022/05/15 11:43:26;;;;;;;5.55;1.73;;;24.90;46.30;;;;;;5076323;28;20040;-79
2022/05/15 11:45:58;;;;;;;5.18;1.83;;;24.90;46.10;;;;;;5076741;28;20048;-79
2022/05/15 11:48:30;;;;;;;4.80;1.42;;;25.00;45.90;;;;;;5075044;28;20052;-80
2022/05/15 11:51:24;;;;;;;6.07;1.65;;;25.10;45.70;;;;;;5072438;28;20040;-79
2022/05/15 11:54:02;;;;;;;4.07;1.63;;;25.10;45.60;;;;;;5056145;28;20041;-80
2022/05/15 11:56:39;;;;;;;4.80;1.70;;;25.20;45.40;;;;;;5086560;28;20048;-79
2022/05/15 11:59:26;;;;;;;4.68;1.60;;;25.30;45.30;;;;;;5077764;28;20052;-79
2022/05/15 12:02:21;;;;;;;9.70;1.90;;;25.40;45.10;;;;;;5075643;28;20045;-80
2022/05/15 12:04:48;;;;;;;5.22;1.45;;;25.40;44.90;;;;;;5036131;28;20053;-80
2022/05/15 12:07:15;;;;;;;8.68;1.80;;;25.40;44.80;;;;;;5035287;28;20612;-79
2022/05/15 12:09:44;;;;;;;5.15;1.60;;;25.60;44.60;;;;;;5035223;28;20119;-80
2022/05/15 12:12:43;;;;;;;7.88;1.65;;;25.60;44.50;;;;;;5014992;28;20452;-80
2022/05/15 12:15:14;;;;;;;11.32;1.70;;;25.70;44.40;;;;;;5020805;28;20049;-79
2022/05/15 12:17:44;;;;;;;6.85;1.70;;;25.80;44.30;;;;;;5032200;28;20076;-79
2022/05/15 12:20:17;;;;;;;6.60;1.88;;;25.80;44.20;;;;;;5037051;28;20523;-81
2022/05/15 12:22:51;;;;;;;4.68;1.50;;;25.90;44.00;;;;;;5035562;28;20053;-82
2022/05/15 12:25:22;;;;;;;4.47;1.55;;;25.90;43.80;;;;;;5035235;28;20046;-83
2022/05/15 12:28:50;;;;;;;4.65;1.42;;;26.00;43.70;;;;;;5035464;28;20466;-82
2022/05/15 12:30:47;;;;;;;4.45;1.50;;;26.00;43.50;;;;;;5035319;28;20600;-82
2022/05/15 12:33:21;;;;;;;5.00;1.50;;;26.10;43.40;;;;;;5033698;28;20109;-82
2022/05/15 12:35:48;;;;;;;;;;;26.10;43.30;;;;;;5031845;28;20515;-82
2022/05/15 12:38:19;;;;;;;5.32;1.60;;;26.20;43.30;;;;;;5036542;28;19920;-82
2022/05/15 12:41:08;;;;;;;5.78;1.80;;;26.30;43.20;;;;;;5037241;28;20061;-82
2022/05/15 12:43:42;;;;;;;5.93;1.75;;;26.30;43.10;;;;;;5073125;28;20060;-81
2022/05/15 12:46:22;;;;;;;4.50;1.60;;;26.40;42.90;;;;;;5074602;28;20491;-82
2022/05/15 12:48:49;;;;;;;4.78;1.55;;;26.40;42.70;;;;;;5073437;28;20477;-82
2022/05/15 12:51:29;;;;;;;4.25;1.65;;;26.50;42.60;;;;;;5075142;28;20056;-82
2022/05/15 12:53:57;;;;;;;4.78;1.52;;;26.60;42.50;;;;;;5055139;28;20057;-82
2022/05/15 12:56:27;;;;;;;6.28;2.08;;;26.60;42.40;;;;;;5076599;28;20064;-82
2022/05/15 12:58:57;;;;;;;5.47;1.42;;;26.60;42.40;;;;;;5075195;28;20052;-82
2022/05/15 13:01:32;;;;;;;9.38;1.85;;;26.70;42.30;;;;;;5074141;28;20060;-82
2022/05/15 13:04:01;;;;;;;5.22;1.60;;;26.80;42.20;;;;;;5074166;28;20076;-82
2022/05/15 13:06:48;;;;;;;4.88;1.55;;;26.80;42.10;;;;;;5074085;28;20079;-81
2022/05/15 13:09:21;;;;;;;3.78;1.45;;;26.90;41.90;;;;;;5072574;28;20102;-82
2022/05/15 13:11:52;;;;;;;5.80;1.70;;;26.90;41.60;;;;;;5070887;28;20064;-81
2022/05/15 13:14:25;;;;;;;3.42;1.30;;;27.00;41.50;;;;;;5085983;28;20052;-81
2022/05/15 13:16:53;;;;;;;6.53;1.40;;;27.00;41.40;;;;;;5057837;28;20487;-82
2022/05/15 13:19:27;;;;;;;6.43;1.63;;;27.00;41.30;;;;;;5071163;28;20060;-82
2022/05/15 13:21:56;;;;;;;6.60;1.60;;;27.00;41.20;;;;;;5073544;28;20632;-82
2022/05/15 13:24:25;;;;;;;4.07;1.75;;;27.10;41.20;;;;;;5074761;28;20044;-82